sensor_id;sensor_type;location;lat;lon;timestamp;P1;durP1;ratioP1;P2;durP2;ratioP2
40695;SDS011;40425;51.102;17.208;2023-02-10T00:01:56;61.90;;;28.53;;
40695;SDS011;40425;51.102;17.208;2023-02-10T00:06:57;63.00;;;30.57;;
40695;SDS011;40425;51.102;17.208;2023-02-10T00:11:58;44.97;;;21.00;;
40695;SDS011;40425;51.102;17.208;2023-02-10T00:16:59;50.87;;;23.87;;
40695;SDS011;40425;51.102;17.208;2023-02-10T00:22:01;44.07;;;19.60;;
40695;SDS011;40425;51.102;17.208;2023-02-10T00:27:02;44.70;;;19.23;;
40695;SDS011;40425;51.102;17.208;2023-02-10T00:32:03;43.37;;;21.23;;
40695;SDS011;40425;51.102;17.208;2023-02-10T00:37:04;33.73;;;17.47;;
40695;SDS011;40425;51.102;17.208;2023-02-10T00:42:05;37.47;;;17.90;;
40695;SDS011;40425;51.102;17.208;2023-02-10T00:47:05;38.00;;;17.30;;
40695;SDS011;40425;51.102;17.208;2023-02-10T00:52:06;33.07;;;16.50;;
40695;SDS011;40425;51.102;17.208;2023-02-10T00:57:07;38.27;;;18.90;;
40695;SDS011;40425;51.102;17.208;2023-02-10T01:02:08;35.77;;;17.07;;
40695;SDS011;40425;51.102;17.208;2023-02-10T01:07:09;34.90;;;17.30;;
40695;SDS011;40425;51.102;17.208;2023-02-10T01:12:10;29.50;;;15.63;;
40695;SDS011;40425;51.102;17.208;2023-02-10T01:17:11;36.57;;;16.70;;
40695;SDS011;40425;51.102;17.208;2023-02-10T01:22:12;33.37;;;15.83;;
40695;SDS011;40425;51.102;17.208;2023-02-10T01:27:12;39.83;;;17.93;;
40695;SDS011;40425;51.102;17.208;2023-02-10T01:32:13;41.60;;;18.77;;
40695;SDS011;40425;51.102;17.208;2023-02-10T01:37:14;42.17;;;18.07;;
40695;SDS011;40425;51.102;17.208;2023-02-10T01:42:15;40.57;;;17.90;;
40695;SDS011;40425;51.102;17.208;2023-02-10T01:47:16;41.77;;;19.10;;
40695;SDS011;40425;51.102;17.208;2023-02-10T01:52:18;39.33;;;18.70;;
40695;SDS011;40425;51.102;17.208;2023-02-10T01:57:23;38.60;;;17.37;;
40695;SDS011;40425;51.102;17.208;2023-02-10T02:02:24;56.93;;;24.90;;
40695;SDS011;40425;51.102;17.208;2023-02-10T02:07:26;42.87;;;17.43;;
40695;SDS011;40425;51.102;17.208;2023-02-10T02:12:54;33.10;;;14.93;;
40695;SDS011;40425;51.102;17.208;2023-02-10T02:23:47;47.23;;;20.10;;
40695;SDS011;40425;51.102;17.208;2023-02-10T02:34:56;46.53;;;18.73;;
40695;SDS011;40425;51.102;17.208;2023-02-10T02:40:03;39.00;;;16.87;;
40695;SDS011;40425;51.102;17.208;2023-02-10T02:45:10;42.57;;;17.87;;
40695;SDS011;40425;51.102;17.208;2023-02-10T02:50:31;39.17;;;15.90;;
40695;SDS011;40425;51.102;17.208;2023-02-10T02:55:49;33.53;;;14.57;;
40695;SDS011;40425;51.102;17.208;2023-02-10T03:01:03;35.03;;;16.40;;
40695;SDS011;40425;51.102;17.208;2023-02-10T03:06:11;37.57;;;16.07;;
40695;SDS011;40425;51.102;17.208;2023-02-10T03:11:15;39.63;;;18.07;;
40695;SDS011;40425;51.102;17.208;2023-02-10T03:16:16;33.17;;;15.47;;
40695;SDS011;40425;51.102;17.208;2023-02-10T03:21:17;32.47;;;15.57;;
40695;SDS011;40425;51.102;17.208;2023-02-10T03:26:18;36.53;;;15.93;;
40695;SDS011;40425;51.102;17.208;2023-02-10T03:31:19;31.83;;;13.70;;
40695;SDS011;40425;51.102;17.208;2023-02-10T03:36:20;28.77;;;13.47;;
40695;SDS011;40425;51.102;17.208;2023-02-10T03:41:21;27.60;;;13.30;;
40695;SDS011;40425;51.102;17.208;2023-02-10T03:46:22;34.57;;;14.57;;
40695;SDS011;40425;51.102;17.208;2023-02-10T03:51:22;29.33;;;12.63;;
40695;SDS011;40425;51.102;17.208;2023-02-10T03:56:23;30.03;;;13.83;;
40695;SDS011;40425;51.102;17.208;2023-02-10T04:01:24;37.17;;;14.40;;
40695;SDS011;40425;51.102;17.208;2023-02-10T04:06:25;29.03;;;13.43;;
40695;SDS011;40425;51.102;17.208;2023-02-10T04:11:26;29.73;;;13.87;;
40695;SDS011;40425;51.102;17.208;2023-02-10T04:16:27;30.40;;;13.10;;
40695;SDS011;40425;51.102;17.208;2023-02-10T04:21:29;34.83;;;15.17;;
40695;SDS011;40425;51.102;17.208;2023-02-10T04:26:30;32.03;;;14.07;;
40695;SDS011;40425;51.102;17.208;2023-02-10T04:31:31;38.40;;;15.77;;
40695;SDS011;40425;51.102;17.208;2023-02-10T04:36:32;38.17;;;15.70;;
40695;SDS011;40425;51.102;17.208;2023-02-10T04:41:33;41.53;;;17.63;;
40695;SDS011;40425;51.102;17.208;2023-02-10T04:46:33;34.50;;;16.33;;
40695;SDS011;40425;51.102;17.208;2023-02-10T04:51:34;33.13;;;14.93;;
40695;SDS011;40425;51.102;17.208;2023-02-10T04:56:35;32.43;;;14.47;;
40695;SDS011;40425;51.102;17.208;2023-02-10T05:01:36;31.83;;;14.43;;
40695;SDS011;40425;51.102;17.208;2023-02-10T05:06:37;25.77;;;13.13;;
40695;SDS011;40425;51.102;17.208;2023-02-10T05:11:38;39.43;;;15.73;;
40695;SDS011;40425;51.102;17.208;2023-02-10T05:16:39;41.70;;;16.67;;
40695;SDS011;40425;51.102;17.208;2023-02-10T05:21:40;31.77;;;15.07;;
40695;SDS011;40425;51.102;17.208;2023-02-10T05:26:41;29.03;;;12.67;;
40695;SDS011;40425;51.102;17.208;2023-02-10T05:31:42;28.83;;;13.10;;
40695;SDS011;40425;51.102;17.208;2023-02-10T05:36:43;26.53;;;13.07;;
40695;SDS011;40425;51.102;17.208;2023-02-10T05:41:44;28.70;;;11.80;;
40695;SDS011;40425;51.102;17.208;2023-02-10T05:46:45;26.10;;;13.70;;
40695;SDS011;40425;51.102;17.208;2023-02-10T05:51:46;27.27;;;14.00;;
40695;SDS011;40425;51.102;17.208;2023-02-10T05:56:47;28.43;;;14.23;;
40695;SDS011;40425;51.102;17.208;2023-02-10T06:01:50;27.10;;;13.87;;
40695;SDS011;40425;51.102;17.208;2023-02-10T06:06:50;27.43;;;13.10;;
40695;SDS011;40425;51.102;17.208;2023-02-10T06:11:51;24.30;;;13.47;;
40695;SDS011;40425;51.102;17.208;2023-02-10T06:16:53;27.83;;;14.00;;
40695;SDS011;40425;51.102;17.208;2023-02-10T06:21:53;23.87;;;12.10;;
40695;SDS011;40425;51.102;17.208;2023-02-10T06:26:54;25.70;;;12.77;;
40695;SDS011;40425;51.102;17.208;2023-02-10T06:31:56;25.43;;;12.97;;
40695;SDS011;40425;51.102;17.208;2023-02-10T06:36:57;25.73;;;13.30;;
40695;SDS011;40425;51.102;17.208;2023-02-10T06:41:57;27.77;;;14.00;;
40695;SDS011;40425;51.102;17.208;2023-02-10T06:46:59;29.17;;;12.43;;
40695;SDS011;40425;51.102;17.208;2023-02-10T06:52:01;26.50;;;13.30;;
40695;SDS011;40425;51.102;17.208;2023-02-10T06:57:03;27.03;;;13.20;;
40695;SDS011;40425;51.102;17.208;2023-02-10T07:02:03;27.20;;;13.30;;
40695;SDS011;40425;51.102;17.208;2023-02-10T07:07:05;27.97;;;13.13;;
40695;SDS011;40425;51.102;17.208;2023-02-10T07:12:06;23.77;;;12.50;;
40695;SDS011;40425;51.102;17.208;2023-02-10T07:17:07;27.80;;;12.03;;
40695;SDS011;40425;51.102;17.208;2023-02-10T07:22:08;23.03;;;11.70;;
40695;SDS011;40425;51.102;17.208;2023-02-10T07:27:09;20.53;;;10.07;;
40695;SDS011;40425;51.102;17.208;2023-02-10T07:32:10;30.30;;;11.97;;
40695;SDS011;40425;51.102;17.208;2023-02-10T07:37:10;28.13;;;12.27;;
40695;SDS011;40425;51.102;17.208;2023-02-10T07:42:11;22.73;;;11.60;;
40695;SDS011;40425;51.102;17.208;2023-02-10T07:47:12;25.23;;;12.67;;
40695;SDS011;40425;51.102;17.208;2023-02-10T07:52:13;26.73;;;13.07;;
40695;SDS011;40425;51.102;17.208;2023-02-10T07:57:14;26.13;;;12.17;;
40695;SDS011;40425;51.102;17.208;2023-02-10T08:02:15;27.30;;;13.40;;
40695;SDS011;40425;51.102;17.208;2023-02-10T08:07:16;27.73;;;13.90;;
40695;SDS011;40425;51.102;17.208;2023-02-10T08:12:17;26.03;;;13.60;;
40695;SDS011;40425;51.102;17.208;2023-02-10T08:17:18;30.03;;;14.80;;
40695;SDS011;40425;51.102;17.208;2023-02-10T08:22:19;27.63;;;15.43;;
40695;SDS011;40425;51.102;17.208;2023-02-10T08:27:19;28.83;;;15.17;;
40695;SDS011;40425;51.102;17.208;2023-02-10T08:32:20;33.60;;;15.80;;
40695;SDS011;40425;51.102;17.208;2023-02-10T08:37:22;35.67;;;16.87;;
40695;SDS011;40425;51.102;17.208;2023-02-10T08:42:22;28.87;;;15.70;;
40695;SDS011;40425;51.102;17.208;2023-02-10T08:47:24;33.17;;;16.27;;
40695;SDS011;40425;51.102;17.208;2023-02-10T08:52:25;32.87;;;16.20;;
40695;SDS011;40425;51.102;17.208;2023-02-10T08:57:26;35.00;;;18.37;;
40695;SDS011;40425;51.102;17.208;2023-02-10T09:02:27;41.87;;;18.47;;
40695;SDS011;40425;51.102;17.208;2023-02-10T09:07:28;33.13;;;17.50;;
40695;SDS011;40425;51.102;17.208;2023-02-10T09:12:29;34.40;;;17.70;;
40695;SDS011;40425;51.102;17.208;2023-02-10T09:17:30;39.90;;;19.67;;
40695;SDS011;40425;51.102;17.208;2023-02-10T09:22:31;36.47;;;17.30;;
40695;SDS011;40425;51.102;17.208;2023-02-10T09:27:32;35.13;;;17.80;;
40695;SDS011;40425;51.102;17.208;2023-02-10T09:32:33;32.33;;;17.27;;
40695;SDS011;40425;51.102;17.208;2023-02-10T09:37:34;31.03;;;15.40;;
40695;SDS011;40425;51.102;17.208;2023-02-10T09:42:46;30.00;;;16.07;;
40695;SDS011;40425;51.102;17.208;2023-02-10T09:48:29;28.07;;;14.13;;
40695;SDS011;40425;51.102;17.208;2023-02-10T09:53:50;29.03;;;15.70;;
40695;SDS011;40425;51.102;17.208;2023-02-10T09:58:52;34.57;;;15.93;;
40695;SDS011;40425;51.102;17.208;2023-02-10T10:09:00;22.77;;;13.43;;
40695;SDS011;40425;51.102;17.208;2023-02-10T10:14:01;30.60;;;14.67;;
40695;SDS011;40425;51.102;17.208;2023-02-10T10:19:08;28.77;;;13.80;;
40695;SDS011;40425;51.102;17.208;2023-02-10T10:29:56;30.63;;;13.93;;
40695;SDS011;40425;51.102;17.208;2023-02-10T10:40:27;35.57;;;15.37;;
40695;SDS011;40425;51.102;17.208;2023-02-10T10:45:41;27.70;;;14.37;;
40695;SDS011;40425;51.102;17.208;2023-02-10T10:50:47;28.57;;;14.87;;
40695;SDS011;40425;51.102;17.208;2023-02-10T10:55:51;29.53;;;13.03;;
40695;SDS011;40425;51.102;17.208;2023-02-10T11:00:56;30.60;;;13.47;;
40695;SDS011;40425;51.102;17.208;2023-02-10T11:11:06;21.47;;;12.00;;
40695;SDS011;40425;51.102;17.208;2023-02-10T11:16:10;25.83;;;13.63;;
40695;SDS011;40425;51.102;17.208;2023-02-10T11:21:16;25.40;;;13.20;;
40695;SDS011;40425;51.102;17.208;2023-02-10T11:26:19;30.67;;;14.47;;
40695;SDS011;40425;51.102;17.208;2023-02-10T11:36:36;38.30;;;15.60;;
40695;SDS011;40425;51.102;17.208;2023-02-10T11:41:39;31.80;;;16.77;;
40695;SDS011;40425;51.102;17.208;2023-02-10T11:46:40;31.93;;;16.07;;
40695;SDS011;40425;51.102;17.208;2023-02-10T11:51:50;33.43;;;16.13;;
40695;SDS011;40425;51.102;17.208;2023-02-10T12:02:58;30.87;;;16.33;;
40695;SDS011;40425;51.102;17.208;2023-02-10T12:08:09;35.00;;;16.13;;
40695;SDS011;40425;51.102;17.208;2023-02-10T12:34:42;32.90;;;14.07;;
40695;SDS011;40425;51.102;17.208;2023-02-10T12:40:07;29.03;;;13.37;;
40695;SDS011;40425;51.102;17.208;2023-02-10T12:45:55;28.43;;;13.03;;
40695;SDS011;40425;51.102;17.208;2023-02-10T12:56:31;32.92;;;14.98;;
40695;SDS011;40425;51.102;17.208;2023-02-10T13:01:48;28.43;;;13.47;;
40695;SDS011;40425;51.102;17.208;2023-02-10T13:06:54;28.17;;;14.13;;
40695;SDS011;40425;51.102;17.208;2023-02-10T13:17:22;34.23;;;15.73;;
40695;SDS011;40425;51.102;17.208;2023-02-10T13:33:16;24.93;;;11.80;;
40695;SDS011;40425;51.102;17.208;2023-02-10T13:38:43;23.27;;;10.97;;
40695;SDS011;40425;51.102;17.208;2023-02-10T13:43:45;22.30;;;11.50;;
40695;SDS011;40425;51.102;17.208;2023-02-10T13:48:50;25.83;;;12.47;;
40695;SDS011;40425;51.102;17.208;2023-02-10T13:53:56;31.30;;;12.97;;
40695;SDS011;40425;51.102;17.208;2023-02-10T14:14:31;26.70;;;11.03;;
40695;SDS011;40425;51.102;17.208;2023-02-10T14:19:33;24.20;;;12.17;;
40695;SDS011;40425;51.102;17.208;2023-02-10T14:24:43;25.93;;;11.97;;
40695;SDS011;40425;51.102;17.208;2023-02-10T14:29:59;33.70;;;12.30;;
40695;SDS011;40425;51.102;17.208;2023-02-10T14:35:22;22.90;;;11.63;;
40695;SDS011;40425;51.102;17.208;2023-02-10T14:45:26;25.03;;;11.50;;
40695;SDS011;40425;51.102;17.208;2023-02-10T14:50:30;31.40;;;12.63;;
40695;SDS011;40425;51.102;17.208;2023-02-10T14:55:34;27.77;;;11.40;;
40695;SDS011;40425;51.102;17.208;2023-02-10T15:00:52;21.38;;;10.25;;
40695;SDS011;40425;51.102;17.208;2023-02-10T15:06:16;24.85;;;11.35;;
40695;SDS011;40425;51.102;17.208;2023-02-10T15:11:23;24.07;;;11.73;;
40695;SDS011;40425;51.102;17.208;2023-02-10T15:16:47;24.90;;;10.93;;
40695;SDS011;40425;51.102;17.208;2023-02-10T15:21:49;23.37;;;11.07;;
40695;SDS011;40425;51.102;17.208;2023-02-10T15:26:52;25.73;;;11.73;;
40695;SDS011;40425;51.102;17.208;2023-02-10T15:47:23;30.90;;;11.40;;
40695;SDS011;40425;51.102;17.208;2023-02-10T15:57:47;24.10;;;10.87;;
40695;SDS011;40425;51.102;17.208;2023-02-10T16:02:48;24.33;;;9.83;;
40695;SDS011;40425;51.102;17.208;2023-02-10T16:07:52;26.70;;;10.43;;
40695;SDS011;40425;51.102;17.208;2023-02-10T16:12:53;23.60;;;10.07;;
40695;SDS011;40425;51.102;17.208;2023-02-10T16:17:56;17.93;;;9.10;;
40695;SDS011;40425;51.102;17.208;2023-02-10T16:22:59;23.90;;;8.63;;
40695;SDS011;40425;51.102;17.208;2023-02-10T16:28:01;19.57;;;6.90;;
40695;SDS011;40425;51.102;17.208;2023-02-10T16:33:02;20.77;;;6.40;;
40695;SDS011;40425;51.102;17.208;2023-02-10T16:38:04;17.00;;;5.50;;
40695;SDS011;40425;51.102;17.208;2023-02-10T16:43:16;17.93;;;6.17;;
40695;SDS011;40425;51.102;17.208;2023-02-10T16:48:18;17.97;;;7.73;;
40695;SDS011;40425;51.102;17.208;2023-02-10T16:53:19;32.73;;;10.63;;
40695;SDS011;40425;51.102;17.208;2023-02-10T16:58:21;26.40;;;8.97;;
40695;SDS011;40425;51.102;17.208;2023-02-10T17:03:22;15.30;;;6.53;;
40695;SDS011;40425;51.102;17.208;2023-02-10T17:08:25;26.33;;;6.50;;
40695;SDS011;40425;51.102;17.208;2023-02-10T17:13:34;18.47;;;7.70;;
40695;SDS011;40425;51.102;17.208;2023-02-10T17:18:35;12.67;;;6.27;;
40695;SDS011;40425;51.102;17.208;2023-02-10T17:23:36;15.77;;;5.13;;
40695;SDS011;40425;51.102;17.208;2023-02-10T17:28:37;11.53;;;5.17;;
40695;SDS011;40425;51.102;17.208;2023-02-10T17:33:39;12.23;;;4.50;;
40695;SDS011;40425;51.102;17.208;2023-02-10T17:38:40;13.73;;;5.27;;
40695;SDS011;40425;51.102;17.208;2023-02-10T17:43:45;17.37;;;5.27;;
40695;SDS011;40425;51.102;17.208;2023-02-10T17:48:46;14.57;;;6.77;;
40695;SDS011;40425;51.102;17.208;2023-02-10T17:53:48;28.40;;;10.60;;
40695;SDS011;40425;51.102;17.208;2023-02-10T17:58:51;29.10;;;10.80;;
40695;SDS011;40425;51.102;17.208;2023-02-10T18:03:54;23.50;;;9.20;;
40695;SDS011;40425;51.102;17.208;2023-02-10T18:08:56;35.30;;;13.13;;
40695;SDS011;40425;51.102;17.208;2023-02-10T18:13:58;32.93;;;12.53;;
40695;SDS011;40425;51.102;17.208;2023-02-10T18:19:00;32.87;;;12.17;;
40695;SDS011;40425;51.102;17.208;2023-02-10T18:24:01;24.10;;;11.27;;
40695;SDS011;40425;51.102;17.208;2023-02-10T18:29:03;22.87;;;9.67;;
40695;SDS011;40425;51.102;17.208;2023-02-10T18:34:04;28.83;;;11.73;;
40695;SDS011;40425;51.102;17.208;2023-02-10T18:39:06;22.37;;;11.93;;
40695;SDS011;40425;51.102;17.208;2023-02-10T18:44:08;36.10;;;15.13;;
40695;SDS011;40425;51.102;17.208;2023-02-10T18:49:09;36.70;;;17.50;;
40695;SDS011;40425;51.102;17.208;2023-02-10T18:54:10;38.00;;;18.33;;
40695;SDS011;40425;51.102;17.208;2023-02-10T18:59:11;39.40;;;18.17;;
40695;SDS011;40425;51.102;17.208;2023-02-10T19:04:12;47.47;;;22.03;;
40695;SDS011;40425;51.102;17.208;2023-02-10T19:09:19;44.47;;;21.10;;
40695;SDS011;40425;51.102;17.208;2023-02-10T19:14:21;47.60;;;23.10;;
40695;SDS011;40425;51.102;17.208;2023-02-10T19:19:24;47.57;;;23.77;;
40695;SDS011;40425;51.102;17.208;2023-02-10T19:24:42;53.67;;;26.33;;
40695;SDS011;40425;51.102;17.208;2023-02-10T19:29:46;50.90;;;24.80;;
40695;SDS011;40425;51.102;17.208;2023-02-10T19:34:48;47.53;;;23.00;;
40695;SDS011;40425;51.102;17.208;2023-02-10T19:39:52;56.43;;;25.90;;
40695;SDS011;40425;51.102;17.208;2023-02-10T19:44:56;55.30;;;27.87;;
40695;SDS011;40425;51.102;17.208;2023-02-10T19:49:59;56.27;;;27.57;;
40695;SDS011;40425;51.102;17.208;2023-02-10T19:55:04;63.77;;;29.83;;
40695;SDS011;40425;51.102;17.208;2023-02-10T20:00:05;56.30;;;28.00;;
40695;SDS011;40425;51.102;17.208;2023-02-10T20:05:06;59.90;;;28.77;;
40695;SDS011;40425;51.102;17.208;2023-02-10T20:10:07;58.10;;;30.53;;
40695;SDS011;40425;51.102;17.208;2023-02-10T20:15:08;58.93;;;29.83;;
40695;SDS011;40425;51.102;17.208;2023-02-10T20:20:09;66.73;;;32.23;;
40695;SDS011;40425;51.102;17.208;2023-02-10T20:25:10;65.87;;;32.50;;
40695;SDS011;40425;51.102;17.208;2023-02-10T20:30:11;68.00;;;31.80;;
40695;SDS011;40425;51.102;17.208;2023-02-10T20:35:13;65.97;;;32.77;;
40695;SDS011;40425;51.102;17.208;2023-02-10T20:40:18;59.43;;;31.13;;
40695;SDS011;40425;51.102;17.208;2023-02-10T20:45:20;63.30;;;31.80;;
40695;SDS011;40425;51.102;17.208;2023-02-10T20:50:23;61.23;;;31.73;;
40695;SDS011;40425;51.102;17.208;2023-02-10T20:55:25;65.57;;;31.40;;
40695;SDS011;40425;51.102;17.208;2023-02-10T21:00:35;69.00;;;31.77;;
40695;SDS011;40425;51.102;17.208;2023-02-10T21:05:36;61.23;;;29.87;;
40695;SDS011;40425;51.102;17.208;2023-02-10T21:10:38;64.17;;;30.33;;
40695;SDS011;40425;51.102;17.208;2023-02-10T21:15:40;58.27;;;28.23;;
40695;SDS011;40425;51.102;17.208;2023-02-10T21:20:40;52.13;;;28.57;;
40695;SDS011;40425;51.102;17.208;2023-02-10T21:25:41;62.70;;;28.07;;
40695;SDS011;40425;51.102;17.208;2023-02-10T21:30:43;52.70;;;26.47;;
40695;SDS011;40425;51.102;17.208;2023-02-10T21:35:45;55.73;;;26.27;;
40695;SDS011;40425;51.102;17.208;2023-02-10T21:40:48;56.53;;;27.10;;
40695;SDS011;40425;51.102;17.208;2023-02-10T21:45:49;58.97;;;26.90;;
40695;SDS011;40425;51.102;17.208;2023-02-10T21:50:50;55.67;;;24.57;;
40695;SDS011;40425;51.102;17.208;2023-02-10T21:55:51;51.90;;;26.03;;
40695;SDS011;40425;51.102;17.208;2023-02-10T22:00:52;58.37;;;26.10;;
40695;SDS011;40425;51.102;17.208;2023-02-10T22:05:53;54.63;;;25.63;;
40695;SDS011;40425;51.102;17.208;2023-02-10T22:10:55;60.70;;;28.87;;
40695;SDS011;40425;51.102;17.208;2023-02-10T22:15:56;97.37;;;43.53;;
40695;SDS011;40425;51.102;17.208;2023-02-10T22:21:03;79.73;;;37.07;;
40695;SDS011;40425;51.102;17.208;2023-02-10T22:26:05;117.67;;;52.90;;
40695;SDS011;40425;51.102;17.208;2023-02-10T22:31:07;62.03;;;28.90;;
40695;SDS011;40425;51.102;17.208;2023-02-10T22:36:11;48.03;;;23.53;;
40695;SDS011;40425;51.102;17.208;2023-02-10T22:41:13;43.53;;;21.37;;
40695;SDS011;40425;51.102;17.208;2023-02-10T22:46:16;43.50;;;21.77;;
40695;SDS011;40425;51.102;17.208;2023-02-10T22:51:18;51.00;;;21.87;;
40695;SDS011;40425;51.102;17.208;2023-02-10T22:56:25;56.17;;;25.50;;
40695;SDS011;40425;51.102;17.208;2023-02-10T23:01:37;55.63;;;24.73;;
40695;SDS011;40425;51.102;17.208;2023-02-10T23:06:41;50.17;;;23.90;;
40695;SDS011;40425;51.102;17.208;2023-02-10T23:11:44;54.33;;;23.77;;
40695;SDS011;40425;51.102;17.208;2023-02-10T23:16:48;45.13;;;23.10;;
40695;SDS011;40425;51.102;17.208;2023-02-10T23:21:51;46.27;;;23.13;;
40695;SDS011;40425;51.102;17.208;2023-02-10T23:26:52;43.03;;;21.10;;
40695;SDS011;40425;51.102;17.208;2023-02-10T23:31:53;49.83;;;22.67;;
40695;SDS011;40425;51.102;17.208;2023-02-10T23:36:54;45.10;;;22.40;;
40695;SDS011;40425;51.102;17.208;2023-02-10T23:41:56;47.83;;;22.17;;
40695;SDS011;40425;51.102;17.208;2023-02-10T23:46:57;45.77;;;22.30;;
40695;SDS011;40425;51.102;17.208;2023-02-10T23:51:58;46.07;;;21.77;;
40695;SDS011;40425;51.102;17.208;2023-02-10T23:56:59;46.67;;;21.57;;
